Impacts METAR Board
IDs:

KFLL - Ft Lauderdale-Hollyw, FL, US

Updated at: 1700 UTC 22 Sep 2019
Potential Impact None Slight Moderate High
Time 22/05Z 22/06Z 22/07Z 22/08Z 22/09Z 22/10Z 22/11Z 22/12Z 22/13Z 22/14Z 22/15Z 22/16Z 22/17Z
Temp81 80 80 80 80 79 79 80 82 83 83 84 87
Dewpt71 70 70 70 68 68 67 69 70 69 69 70 71
Altim30.02 30.01 30.00 29.99 29.98 29.99 29.99 30.00 30.02 30.04 30.04 30.04 30.02
VIS10 10 10 10 10 10 10 10 10 10 10 10 10
CIG43 39 -- 43 -- -- -- 150 200 250 250 250 250
CoverOVCBKNSCTBKNSCTSCTSCTBKNBKNBKNBKNBKNBKN
FltCatVFRVFRVFRVFRVFRVFRVFRVFRVFRVFRVFRVFRVFR
WX--------------------------
WDir60606060708070708070807070
WSpd13 17 18 17 14 18 19 11 18 17 18 19 14
WGst22 23 23 23 21 22 26 -- 24 22 26 25 22
Raw hourly METARs
KFLL 220453Z 06013G22KT 10SM FEW029 OVC043 27/22 A3002 RMK AO2 PK WND 06028/0422 SLP165 T02720217 403000256
KFLL 220553Z 06017G23KT 10SM SCT027 BKN039 27/21 A3001 RMK AO2 SLP161 60000 T02670211 10272 20261 58015
KFLL 220653Z 06018G23KT 10SM SCT026 SCT041 27/21 A3000 RMK AO2 PK WND 05026/0613 SLP158 T02670211
KFLL 220753Z 06017G23KT 10SM SCT026 BKN043 27/21 A2999 RMK AO2 SLP154 T02670211
KFLL 220853Z 07014G21KT 10SM FEW027 SCT040 27/20 A2998 RMK AO2 PK WND 06027/0826 SLP152 T02670200 56008
KFLL 220953Z 08018G22KT 10SM FEW029 SCT041 26/20 A2999 RMK AO2 SLP154 T02610200
KFLL 221053Z 07019G26KT 10SM SCT033 SCT065 26/19 A2999 RMK AO2 PK WND 08026/1003 SLP154 T02610194
KFLL 221153Z 07011KT 10SM FEW028 FEW037 BKN150 27/21 A3000 RMK AO2 SLP157 70005 T02670206 10267 20261 53005
KFLL 221253Z 08018G24KT 10SM SCT028 SCT036 BKN200 28/21 A3002 RMK AO2 PK WND 08026/1241 SLP164 T02780211
KFLL 221353Z 07017G22KT 10SM SCT035 BKN250 28/21 A3004 RMK AO2 PK WND 08027/1334 SLP170 T02830206 $
KFLL 221453Z 08018G26KT 10SM SCT033 BKN250 28/21 A3004 RMK AO2 PK WND 06028/1414 SLP172 T02830206 51016 $
KFLL 221553Z 07019G25KT 10SM SCT032 BKN250 29/21 A3004 RMK AO2 SLP171 T02890211 $
KFLL 221653Z 07014G22KT 10SM SCT031 SCT040 BKN250 31/22 A3002 RMK AO2 PK WND 09026/1604 SLP166 T03060217 $



Page loaded:  17:14 UTC  |   10:14 AM Pacific  |   11:14 AM Mountain  |   12:14 PM Central  |   01:14 PM Eastern

 

ADVISORIES

FORECASTS

FORECASTS

OBSERVATIONS

USER TOOLS

ABOUT US